createdAt,value
2023-07-26T00:01:00.322Z,15.85
2023-07-26T00:03:28.137Z,15.68
2023-07-26T00:05:57.209Z,15.36
2023-07-26T00:08:24.866Z,15.45
2023-07-26T00:10:52.741Z,16.25
2023-07-26T00:13:20.411Z,15.99
2023-07-26T00:15:48.125Z,15.83
2023-07-26T00:18:15.841Z,16.27
2023-07-26T00:20:43.496Z,16.21
2023-07-26T00:23:12.601Z,15.59
2023-07-26T00:25:40.267Z,16.40
2023-07-26T00:28:07.965Z,16.59
2023-07-26T00:30:35.762Z,16.37
2023-07-26T00:33:03.614Z,15.44
2023-07-26T00:35:36.476Z,16.16
2023-07-26T00:38:04.124Z,16.22
2023-07-26T00:40:33.747Z,16.33
2023-07-26T00:43:01.459Z,16.37
2023-07-26T00:45:29.964Z,16.10
2023-07-26T00:47:57.785Z,16.40
2023-07-26T00:50:26.576Z,16.23
2023-07-26T00:52:54.271Z,16.19
2023-07-26T00:55:22.013Z,16.00
2023-07-26T00:57:51.806Z,15.79
2023-07-26T01:00:20.001Z,15.76
2023-07-26T01:02:48.274Z,15.82
2023-07-26T01:05:16.298Z,15.19
2023-07-26T01:07:49.552Z,15.79
2023-07-26T01:10:22.432Z,16.00
2023-07-26T01:12:55.810Z,15.45
2023-07-26T01:15:29.398Z,15.84
2023-07-26T01:18:10.616Z,15.79
2023-07-26T01:20:38.522Z,15.65
2023-07-26T01:23:08.353Z,15.96
2023-07-26T01:25:36.753Z,15.64
2023-07-26T01:28:04.991Z,15.64
2023-07-26T01:30:35.204Z,15.75
2023-07-26T01:33:05.680Z,14.92
2023-07-26T01:35:33.349Z,15.30
2023-07-26T01:38:01.247Z,15.60
2023-07-26T01:40:30.316Z,15.46
2023-07-26T01:42:58.828Z,15.49
2023-07-26T01:45:26.504Z,15.51
2023-07-26T01:47:55.284Z,15.20
2023-07-26T01:50:23.029Z,15.08
2023-07-26T01:52:50.756Z,15.30
2023-07-26T01:55:18.678Z,15.07
2023-07-26T01:57:47.729Z,15.14
2023-07-26T02:00:16.055Z,15.29
2023-07-26T02:02:43.786Z,15.29
2023-07-26T02:05:12.321Z,15.66
2023-07-26T02:07:40.026Z,15.09
2023-07-26T02:10:08.600Z,15.19
2023-07-26T02:12:36.293Z,15.09
2023-07-26T02:15:08.080Z,15.43
2023-07-26T02:17:35.888Z,15.41
2023-07-26T02:20:03.844Z,15.40
2023-07-26T02:22:31.542Z,15.87
2023-07-26T02:24:59.259Z,15.37
2023-07-26T02:27:26.929Z,16.03
2023-07-26T02:29:54.607Z,16.18
2023-07-26T02:32:23.887Z,15.86
2023-07-26T02:34:51.637Z,15.94
2023-07-26T02:37:19.333Z,16.09
2023-07-26T02:39:47.011Z,15.46
2023-07-26T02:42:14.665Z,15.26
2023-07-26T02:44:42.411Z,15.78
2023-07-26T02:47:10.118Z,15.96
2023-07-26T02:49:39.191Z,16.02
2023-07-26T02:52:07.399Z,15.66
2023-07-26T02:54:35.130Z,15.84
2023-07-26T02:57:02.885Z,16.17
2023-07-26T02:59:30.516Z,16.04
2023-07-26T03:01:58.263Z,15.79
2023-07-26T03:04:26.115Z,15.44
2023-07-26T03:06:55.250Z,15.63
2023-07-26T03:09:23.014Z,15.63
2023-07-26T03:11:50.808Z,15.79
2023-07-26T03:14:18.508Z,15.35
2023-07-26T03:16:46.161Z,15.61
2023-07-26T03:19:13.871Z,15.75
2023-07-26T03:21:41.540Z,15.58
2023-07-26T03:24:10.850Z,15.75
2023-07-26T03:26:38.581Z,15.03
2023-07-26T03:29:06.356Z,15.47
2023-07-26T03:31:34.304Z,15.72
2023-07-26T03:34:02.037Z,14.89
2023-07-26T03:36:30.135Z,15.57
2023-07-26T03:38:58.147Z,15.51
2023-07-26T03:41:27.775Z,15.93
2023-07-26T03:43:55.414Z,15.33
2023-07-26T03:46:23.150Z,15.33
2023-07-26T03:48:51.125Z,15.50
2023-07-26T03:51:18.776Z,15.82
2023-07-26T03:53:46.492Z,15.60
2023-07-26T03:56:14.221Z,15.52
2023-07-26T03:58:43.321Z,15.73
2023-07-26T04:01:11.022Z,15.39
2023-07-26T04:03:38.997Z,15.08
2023-07-26T04:06:06.770Z,15.44
2023-07-26T04:08:34.666Z,15.10
2023-07-26T04:11:04.730Z,15.48
2023-07-26T04:13:32.450Z,15.19
2023-07-26T04:16:02.006Z,15.44
2023-07-26T04:18:30.089Z,15.50
2023-07-26T04:20:58.007Z,15.57
2023-07-26T04:23:28.761Z,15.64
2023-07-26T04:25:56.456Z,15.19
2023-07-26T04:28:24.202Z,15.16
2023-07-26T04:30:54.894Z,15.28
2023-07-26T04:33:24.516Z,15.17
2023-07-26T04:35:52.697Z,15.13
2023-07-26T04:38:20.576Z,15.36
2023-07-26T04:40:48.962Z,15.37
2023-07-26T04:43:17.383Z,15.44
2023-07-26T04:45:45.119Z,14.42
2023-07-26T04:48:12.982Z,15.36
2023-07-26T04:50:42.039Z,15.35
2023-07-26T04:53:09.799Z,15.29
2023-07-26T04:55:42.193Z,15.47
2023-07-26T04:58:09.960Z,15.29
2023-07-26T05:00:39.249Z,15.84
2023-07-26T05:03:07.032Z,15.54
2023-07-26T05:05:34.882Z,15.21
2023-07-26T05:08:04.766Z,16.05
2023-07-26T05:10:32.706Z,15.64
2023-07-26T05:13:00.549Z,15.20
2023-07-26T05:15:28.372Z,15.24
2023-07-26T05:17:56.157Z,15.94
2023-07-26T05:20:24.423Z,15.93
2023-07-26T05:22:52.334Z,15.99
2023-07-26T05:25:21.686Z,16.33
2023-07-26T05:27:49.720Z,16.45
2023-07-26T05:30:19.020Z,15.94
2023-07-26T05:32:46.908Z,16.74
2023-07-26T05:35:15.002Z,17.29
2023-07-26T05:37:43.075Z,16.22
2023-07-26T05:40:11.795Z,16.26
2023-07-26T05:42:41.128Z,16.70
2023-07-26T05:45:10.065Z,16.55
2023-07-26T05:47:39.422Z,17.08
2023-07-26T05:50:08.489Z,17.13
2023-07-26T05:52:36.288Z,17.19
2023-07-26T05:55:04.011Z,17.04
2023-07-26T05:57:31.788Z,16.55
2023-07-26T06:00:01.982Z,16.61
2023-07-26T06:02:29.684Z,17.17
2023-07-26T06:04:57.652Z,16.81
2023-07-26T06:07:25.276Z,17.45
2023-07-26T06:09:53.130Z,17.35
2023-07-26T06:12:20.784Z,17.48
2023-07-26T06:14:48.431Z,17.37
2023-07-26T06:17:17.482Z,16.99
2023-07-26T06:19:45.108Z,17.30
2023-07-26T06:22:13.518Z,17.30
2023-07-26T06:24:41.433Z,17.71
2023-07-26T06:27:09.284Z,18.21
2023-07-26T06:29:38.507Z,18.15
2023-07-26T06:32:07.029Z,18.49
2023-07-26T06:34:36.081Z,18.70
2023-07-26T06:37:03.914Z,17.79
2023-07-26T06:39:31.666Z,17.52
2023-07-26T06:41:59.322Z,17.56
2023-07-26T06:44:27.001Z,17.69
2023-07-26T06:47:13.412Z,17.87
2023-07-26T06:49:42.683Z,17.36
2023-07-26T06:52:10.362Z,17.98
2023-07-26T06:54:38.385Z,18.45
2023-07-26T06:57:06.844Z,17.56
2023-07-26T06:59:34.510Z,17.08
2023-07-26T07:02:02.224Z,18.60
2023-07-26T07:04:29.917Z,18.70
2023-07-26T07:07:17.338Z,17.93
2023-07-26T07:09:45.433Z,17.44
2023-07-26T07:12:13.200Z,18.26
2023-07-26T07:14:41.033Z,18.37
2023-07-26T07:17:08.680Z,18.02
2023-07-26T07:19:36.408Z,18.42
2023-07-26T07:22:04.370Z,17.93
2023-07-26T07:24:35.479Z,18.89
2023-07-26T07:27:03.188Z,18.89
2023-07-26T07:29:31.081Z,19.58
2023-07-26T07:32:12.043Z,19.57
2023-07-26T07:34:48.006Z,18.63
2023-07-26T07:37:15.696Z,18.20
2023-07-26T07:39:45.012Z,20.27
2023-07-26T07:42:12.869Z,19.71
2023-07-26T07:44:40.537Z,19.78
2023-07-26T07:47:11.421Z,19.74
2023-07-26T07:49:40.773Z,19.81
2023-07-26T07:52:08.767Z,19.95
2023-07-26T07:54:36.464Z,18.40
2023-07-26T07:57:14.706Z,20.72
2023-07-26T07:59:42.530Z,20.24
2023-07-26T08:02:10.335Z,21.07
2023-07-26T08:04:38.745Z,21.18
2023-07-26T08:07:07.327Z,21.49
2023-07-26T08:09:35.248Z,21.17
2023-07-26T08:12:03.846Z,20.82
2023-07-26T08:14:33.237Z,20.11
2023-07-26T08:17:01.071Z,20.72
2023-07-26T08:19:28.758Z,19.41
2023-07-26T08:21:57.142Z,21.36
2023-07-26T08:24:25.468Z,20.48
2023-07-26T08:26:54.382Z,19.08
2023-07-26T08:29:22.478Z,19.58
2023-07-26T08:31:51.572Z,20.93
2023-07-26T08:34:19.231Z,21.32
2023-07-26T08:36:46.847Z,20.63
2023-07-26T08:39:33.858Z,20.85
2023-07-26T08:42:02.441Z,22.20
2023-07-26T08:44:30.819Z,20.21
2023-07-26T08:47:02.119Z,20.19
2023-07-26T08:49:30.074Z,20.74
2023-07-26T08:51:58.725Z,21.87
2023-07-26T08:54:26.495Z,21.19
2023-07-26T08:56:54.968Z,20.71
2023-07-26T08:59:22.587Z,20.78
2023-07-26T09:02:01.873Z,19.71
2023-07-26T09:04:32.771Z,20.23
2023-07-26T09:07:02.870Z,20.10
2023-07-26T09:09:30.842Z,20.08
2023-07-26T09:11:58.847Z,19.77
2023-07-26T09:14:28.459Z,20.26
2023-07-26T09:16:57.805Z,21.91
2023-07-26T09:19:40.720Z,21.71
2023-07-26T09:22:11.134Z,21.58
2023-07-26T09:24:42.216Z,20.47
2023-07-26T09:27:11.932Z,20.02
2023-07-26T09:29:41.431Z,21.05
2023-07-26T09:32:10.208Z,20.96
2023-07-26T09:34:41.658Z,19.73
2023-07-26T09:37:20.831Z,19.90
2023-07-26T09:39:48.492Z,21.75
2023-07-26T09:42:16.165Z,22.08
2023-07-26T09:44:47.184Z,21.46
2023-07-26T09:47:17.281Z,21.38
2023-07-26T09:50:13.968Z,21.76
2023-07-26T09:52:41.967Z,20.48
2023-07-26T09:55:32.839Z,22.44
2023-07-26T09:58:02.205Z,20.84
2023-07-26T10:00:31.023Z,21.23
2023-07-26T10:03:01.280Z,19.97
2023-07-26T10:05:36.934Z,21.75
2023-07-26T10:08:04.709Z,20.74
2023-07-26T10:10:33.159Z,19.68
2023-07-26T10:13:02.888Z,21.44
2023-07-26T10:15:31.360Z,21.03
2023-07-26T10:17:59.709Z,21.12
2023-07-26T10:20:27.760Z,21.21
2023-07-26T10:23:02.675Z,22.92
2023-07-26T10:25:31.365Z,20.64
2023-07-26T10:27:59.036Z,19.20
2023-07-26T10:30:27.699Z,20.03
2023-07-26T10:32:55.685Z,20.92
2023-07-26T10:35:31.609Z,18.58
2023-07-26T10:38:02.301Z,19.21
2023-07-26T10:40:31.812Z,18.74
2023-07-26T10:43:00.057Z,18.39
2023-07-26T10:45:42.538Z,18.94
2023-07-26T10:48:28.116Z,18.77
2023-07-26T10:50:59.020Z,18.57
2023-07-26T10:53:33.788Z,19.80
2023-07-26T10:56:12.106Z,19.31
2023-07-26T10:59:12.744Z,19.20
2023-07-26T11:01:42.093Z,20.49
2023-07-26T11:04:13.414Z,20.90
2023-07-26T11:06:52.298Z,19.68
2023-07-26T11:09:26.912Z,20.07
2023-07-26T11:11:56.443Z,22.01
2023-07-26T11:14:25.653Z,22.26
2023-07-26T11:16:55.994Z,22.29
2023-07-26T11:19:25.408Z,21.37
2023-07-26T11:21:53.037Z,19.58
2023-07-26T11:24:29.925Z,21.65
2023-07-26T11:26:57.695Z,22.44
2023-07-26T11:29:25.332Z,22.35
2023-07-26T11:31:53.613Z,22.28
2023-07-26T11:34:21.950Z,23.78
2023-07-26T11:36:49.583Z,23.42
2023-07-26T11:39:21.530Z,23.35
2023-07-26T11:41:51.095Z,22.33
2023-07-26T11:44:22.157Z,24.23
2023-07-26T11:46:50.079Z,23.11
2023-07-26T11:49:21.967Z,21.44
2023-07-26T11:51:50.422Z,21.72
2023-07-26T11:54:18.185Z,22.96
2023-07-26T11:56:46.497Z,22.73
2023-07-26T11:59:15.833Z,20.95
2023-07-26T12:01:43.721Z,21.63
2023-07-26T12:04:12.577Z,21.35
2023-07-26T12:06:41.448Z,20.89
2023-07-26T12:09:11.393Z,21.77
2023-07-26T12:11:40.419Z,21.59
2023-07-26T12:14:09.831Z,22.89
2023-07-26T12:16:39.112Z,21.83
2023-07-26T12:19:06.944Z,23.44
2023-07-26T12:21:34.942Z,22.57
2023-07-26T12:24:04.395Z,22.36
2023-07-26T12:26:35.526Z,21.84
2023-07-26T12:29:07.334Z,23.64
2023-07-26T12:31:38.400Z,23.57
2023-07-26T12:34:09.676Z,23.55
2023-07-26T12:36:48.297Z,23.80
2023-07-26T12:39:17.873Z,24.01
2023-07-26T12:41:46.963Z,24.20
2023-07-26T12:44:15.907Z,23.47
2023-07-26T12:47:18.981Z,25.62
2023-07-26T12:49:35.541Z,26.03
2023-07-26T12:52:03.634Z,23.55
2023-07-26T12:54:31.507Z,22.84
2023-07-26T12:56:59.312Z,22.71
2023-07-26T12:59:26.975Z,19.06
2023-07-26T13:01:54.768Z,18.82
2023-07-26T13:04:22.696Z,18.23
2023-07-26T13:09:33.581Z,16.63
2023-07-26T13:12:01.432Z,15.86
2023-07-26T13:14:29.058Z,15.93
2023-07-26T13:16:56.695Z,16.04
2023-07-26T13:19:24.491Z,16.68
2023-07-26T13:21:53.548Z,16.86
2023-07-26T13:24:21.237Z,16.79
2023-07-26T13:26:49.074Z,16.13
2023-07-26T13:29:16.925Z,17.71
2023-07-26T13:31:44.798Z,16.92
2023-07-26T13:34:12.451Z,16.94
2023-07-26T13:36:40.081Z,17.10
2023-07-26T13:39:09.126Z,18.45
2023-07-26T13:41:36.860Z,17.48
2023-07-26T13:44:04.551Z,18.73
2023-07-26T13:46:35.536Z,18.09
2023-07-26T13:49:05.082Z,19.75
2023-07-26T13:51:32.843Z,21.18
2023-07-26T13:54:01.152Z,21.61
2023-07-26T13:56:30.354Z,22.41
2023-07-26T13:59:16.698Z,24.66
2023-07-26T14:01:44.560Z,24.23
2023-07-26T14:04:12.691Z,23.42
2023-07-26T14:06:40.401Z,22.62
2023-07-26T14:09:08.205Z,24.29
2023-07-26T14:11:37.411Z,22.86
2023-07-26T14:14:05.080Z,23.06
2023-07-26T14:16:32.781Z,23.01
2023-07-26T14:19:01.123Z,24.79
2023-07-26T14:21:28.826Z,24.82
2023-07-26T14:23:56.631Z,24.91
2023-07-26T14:26:24.865Z,24.50
2023-07-26T14:28:56.303Z,27.18
2023-07-26T14:31:24.309Z,25.61
2023-07-26T14:36:37.593Z,22.64
2023-07-26T14:39:05.819Z,22.25
2023-07-26T14:41:33.504Z,19.41
2023-07-26T14:44:02.588Z,19.29
2023-07-26T14:46:30.308Z,17.81
2023-07-26T14:48:57.973Z,16.98
2023-07-26T14:51:25.631Z,17.39
2023-07-26T14:53:55.508Z,17.81
2023-07-26T14:56:23.233Z,17.29
2023-07-26T14:58:50.160Z,18.04
2023-07-26T15:01:19.338Z,18.42
2023-07-26T15:03:47.250Z,17.62
2023-07-26T15:06:15.140Z,21.73
2023-07-26T15:08:44.016Z,22.47
2023-07-26T15:11:11.734Z,22.77
2023-07-26T15:13:39.632Z,23.92
2023-07-26T15:16:08.225Z,26.10
2023-07-26T15:18:37.415Z,26.24
2023-07-26T15:21:05.162Z,25.57
2023-07-26T15:23:34.636Z,27.04
2023-07-26T15:26:02.365Z,25.28
2023-07-26T15:28:30.030Z,24.25
2023-07-26T15:30:58.414Z,23.21
2023-07-26T15:33:26.659Z,24.14
2023-07-26T15:35:55.779Z,23.22
2023-07-26T15:38:25.519Z,26.24
2023-07-26T15:40:54.026Z,25.54
2023-07-26T15:43:23.382Z,27.23
2023-07-26T15:48:22.565Z,25.97
2023-07-26T15:53:23.321Z,23.45
2023-07-26T15:55:52.246Z,23.10
2023-07-26T15:58:21.045Z,23.02
2023-07-26T16:00:49.131Z,22.26
2023-07-26T16:03:33.517Z,22.85
2023-07-26T16:11:04.739Z,23.90
2023-07-26T16:13:32.821Z,26.60
2023-07-26T16:18:31.664Z,28.11
2023-07-26T16:23:30.812Z,32.54
2023-07-26T16:26:00.198Z,30.93
2023-07-26T16:28:27.901Z,29.89
2023-07-26T16:30:55.604Z,28.28
2023-07-26T16:33:23.414Z,28.44
2023-07-26T16:35:51.109Z,27.84
2023-07-26T16:38:18.770Z,30.29
2023-07-26T16:43:29.391Z,29.51
2023-07-26T16:45:57.686Z,29.39
2023-07-26T16:48:26.275Z,27.99
2023-07-26T16:50:54.025Z,29.49
2023-07-26T16:53:21.751Z,29.21
2023-07-26T16:55:49.540Z,28.27
2023-07-26T16:58:17.237Z,29.41
2023-07-26T17:00:46.539Z,28.27
2023-07-26T17:03:14.573Z,28.43
2023-07-26T17:05:42.314Z,29.07
2023-07-26T17:08:09.991Z,26.91
2023-07-26T17:10:37.672Z,26.14
2023-07-26T17:13:17.907Z,26.08
2023-07-26T17:15:47.269Z,25.97
2023-07-26T17:18:15.053Z,25.59
2023-07-26T17:20:44.241Z,23.07
2023-07-26T17:23:12.876Z,23.21
2023-07-26T17:25:40.982Z,22.86
2023-07-26T17:28:08.739Z,22.24
2023-07-26T17:30:36.636Z,21.99
2023-07-26T17:33:06.322Z,21.28
2023-07-26T17:35:34.283Z,21.35
2023-07-26T17:38:01.967Z,21.09
2023-07-26T17:40:35.116Z,20.57
2023-07-26T17:43:03.245Z,21.44
2023-07-26T17:45:31.034Z,20.83
2023-07-26T17:47:58.779Z,21.53
2023-07-26T17:53:20.201Z,21.85
2023-07-26T17:55:47.896Z,21.89
2023-07-26T17:58:15.546Z,22.91
2023-07-26T18:00:43.761Z,22.76
2023-07-26T18:03:11.510Z,22.64
2023-07-26T18:05:39.265Z,22.20
2023-07-26T18:08:07.618Z,21.53
2023-07-26T18:10:36.978Z,21.76
2023-07-26T18:13:05.519Z,21.04
2023-07-26T18:15:33.700Z,21.18
2023-07-26T18:18:01.667Z,22.74
2023-07-26T18:20:31.765Z,22.50
2023-07-26T18:22:59.804Z,22.77
2023-07-26T18:25:27.678Z,22.02
2023-07-26T18:27:58.087Z,21.91
2023-07-26T18:30:26.192Z,21.50
2023-07-26T18:32:54.277Z,21.81
2023-07-26T18:35:22.561Z,21.33
2023-07-26T18:37:50.285Z,21.85
2023-07-26T18:40:18.010Z,21.45
2023-07-26T18:42:47.103Z,21.66
2023-07-26T18:45:18.074Z,21.12
2023-07-26T18:47:45.790Z,21.09
2023-07-26T18:50:13.464Z,21.14
2023-07-26T18:52:41.144Z,20.74
2023-07-26T18:55:09.899Z,20.82
2023-07-26T18:57:37.583Z,20.49
2023-07-26T19:00:06.329Z,20.44
2023-07-26T19:02:35.542Z,19.94
2023-07-26T19:05:03.311Z,19.71
2023-07-26T19:07:31.180Z,19.27
2023-07-26T19:09:59.378Z,19.71
2023-07-26T19:12:27.320Z,19.89
2023-07-26T19:14:55.375Z,18.88
2023-07-26T19:17:23.055Z,19.06
2023-07-26T19:19:52.176Z,19.10
2023-07-26T19:22:19.883Z,18.45
2023-07-26T19:24:47.818Z,18.45
2023-07-26T19:27:15.569Z,18.80
2023-07-26T19:29:43.500Z,18.73
2023-07-26T19:32:11.541Z,18.78
2023-07-26T19:34:39.229Z,18.45
2023-07-26T19:37:08.397Z,18.13
2023-07-26T19:39:36.193Z,17.34
2023-07-26T19:42:04.236Z,17.55
2023-07-26T19:44:31.942Z,17.60
2023-07-26T19:46:59.720Z,17.49
2023-07-26T19:49:27.596Z,17.94
2023-07-26T19:51:55.519Z,17.58
2023-07-26T19:54:24.588Z,18.08
2023-07-26T19:56:52.300Z,17.94
2023-07-26T19:59:20.053Z,17.54
2023-07-26T20:01:47.971Z,17.69
2023-07-26T20:04:16.771Z,17.07
2023-07-26T20:06:50.646Z,17.39
2023-07-26T20:09:18.604Z,17.22
2023-07-26T20:11:47.733Z,17.39
2023-07-26T20:14:15.731Z,18.02
2023-07-26T20:16:44.278Z,17.96
2023-07-26T20:19:12.046Z,17.23
2023-07-26T20:21:39.871Z,17.54
2023-07-26T20:24:08.084Z,17.81
2023-07-26T20:27:06.933Z,17.21
2023-07-26T20:29:34.725Z,17.25
2023-07-26T20:32:02.948Z,17.44
2023-07-26T20:34:31.504Z,16.90
2023-07-26T20:36:59.200Z,17.21
2023-07-26T20:39:26.892Z,16.83
2023-07-26T20:41:54.706Z,16.84
2023-07-26T20:44:24.045Z,16.66
2023-07-26T20:46:52.144Z,16.61
2023-07-26T20:49:19.965Z,17.07
2023-07-26T20:51:47.698Z,16.87
2023-07-26T20:54:15.482Z,16.65
2023-07-26T20:56:43.284Z,16.96
2023-07-26T20:59:10.988Z,16.35
2023-07-26T21:01:40.179Z,16.88
2023-07-26T21:04:08.082Z,16.62
2023-07-26T21:06:36.311Z,16.20
2023-07-26T21:09:05.418Z,16.36
2023-07-26T21:11:33.576Z,16.03
2023-07-26T21:14:01.463Z,16.27
2023-07-26T21:16:30.258Z,16.54
2023-07-26T21:18:59.480Z,16.83
2023-07-26T21:21:27.176Z,16.42
2023-07-26T21:23:55.106Z,16.10
2023-07-26T21:26:23.021Z,16.20
2023-07-26T21:28:50.796Z,16.43
2023-07-26T21:31:18.759Z,16.19
2023-07-26T21:33:46.724Z,16.28
2023-07-26T21:36:15.943Z,16.60
2023-07-26T21:38:44.174Z,16.24
2023-07-26T21:41:12.094Z,16.39
2023-07-26T21:43:39.789Z,16.53
2023-07-26T21:46:07.536Z,16.40
2023-07-26T21:48:35.247Z,17.05
2023-07-26T21:51:02.973Z,17.25
2023-07-26T21:53:32.274Z,16.96
2023-07-26T21:56:00.149Z,16.95
2023-07-26T21:58:27.945Z,17.03
2023-07-26T22:00:56.132Z,17.27
2023-07-26T22:03:23.860Z,17.22
2023-07-26T22:05:54.329Z,17.43
2023-07-26T22:08:22.120Z,17.19
2023-07-26T22:10:51.230Z,17.18
2023-07-26T22:13:19.100Z,17.61
2023-07-26T22:15:47.095Z,16.97
2023-07-26T22:18:15.196Z,17.27
2023-07-26T22:21:01.536Z,17.32
2023-07-26T22:23:30.702Z,17.32
2023-07-26T22:26:11.207Z,17.54
2023-07-26T22:28:41.574Z,17.53
2023-07-26T22:31:09.393Z,16.92
2023-07-26T22:33:38.879Z,16.89
2023-07-26T22:36:07.628Z,16.53
2023-07-26T22:38:35.368Z,16.93
2023-07-26T22:41:06.871Z,16.37
2023-07-26T22:43:34.552Z,16.67
2023-07-26T22:46:02.767Z,16.95
2023-07-26T22:48:30.451Z,16.85
2023-07-26T22:50:58.463Z,17.08
2023-07-26T22:53:26.266Z,16.87
2023-07-26T22:55:54.117Z,16.84
2023-07-26T22:58:23.228Z,17.50
2023-07-26T23:00:51.237Z,17.11
2023-07-26T23:03:19.105Z,17.31
2023-07-26T23:05:46.855Z,17.23
2023-07-26T23:08:14.740Z,16.76
2023-07-26T23:10:42.394Z,17.03
2023-07-26T23:13:10.086Z,17.14
2023-07-26T23:15:39.186Z,17.28
2023-07-26T23:18:07.155Z,16.87
2023-07-26T23:20:34.937Z,16.71
2023-07-26T23:23:02.602Z,16.43
2023-07-26T23:25:30.363Z,16.85
2023-07-26T23:27:58.061Z,16.89
2023-07-26T23:30:25.816Z,16.89
2023-07-26T23:32:54.998Z,16.95
2023-07-26T23:35:22.703Z,16.99
2023-07-26T23:37:50.418Z,17.02
2023-07-26T23:40:18.414Z,16.52
2023-07-26T23:42:46.471Z,16.39
2023-07-26T23:45:14.218Z,17.45
2023-07-26T23:47:42.274Z,16.65
2023-07-26T23:50:12.426Z,16.54
2023-07-26T23:52:40.149Z,16.20
2023-07-26T23:55:08.892Z,16.11
2023-07-26T23:57:36.585Z,17.15
